createdAt,value
2016-08-29T00:04:47.679Z,24.55
2016-08-29T00:09:44.817Z,24.53
2016-08-29T00:14:41.129Z,24.48
2016-08-29T00:19:37.793Z,24.43
2016-08-29T00:24:34.504Z,24.50
2016-08-29T00:29:31.212Z,24.43
2016-08-29T00:34:27.907Z,24.35
2016-08-29T00:39:24.762Z,24.38
2016-08-29T00:44:21.415Z,24.38
2016-08-29T00:49:18.243Z,24.38
2016-08-29T00:54:14.889Z,24.36
2016-08-29T00:59:11.735Z,24.28
2016-08-29T01:04:08.451Z,24.21
2016-08-29T01:09:05.308Z,24.28
2016-08-29T01:14:02.676Z,24.29
2016-08-29T01:18:59.226Z,24.28
2016-08-29T01:23:55.984Z,24.29
2016-08-29T01:28:52.732Z,24.24
2016-08-29T01:33:49.738Z,24.23
2016-08-29T01:38:46.418Z,24.32
2016-08-29T01:43:43.122Z,24.24
2016-08-29T01:48:40.178Z,24.16
2016-08-29T01:53:37.030Z,24.16
2016-08-29T01:58:33.613Z,24.18
2016-08-29T02:03:30.213Z,24.08
2016-08-29T02:08:26.995Z,24.05
2016-08-29T02:13:26.132Z,24.06
2016-08-29T02:18:22.222Z,24.17
2016-08-29T02:23:18.780Z,24.14
2016-08-29T02:28:17.842Z,24.13
2016-08-29T02:33:13.932Z,24.13
2016-08-29T02:38:10.650Z,24.05
2016-08-29T02:43:07.221Z,24.03
2016-08-29T02:48:04.092Z,24.05
2016-08-29T02:53:01.117Z,23.95
2016-08-29T02:57:57.663Z,23.96
2016-08-29T03:02:54.366Z,24.02
2016-08-29T03:07:51.546Z,24.08
2016-08-29T03:12:48.549Z,23.98
2016-08-29T03:17:45.312Z,23.98
2016-08-29T03:22:42.095Z,24.08
2016-08-29T03:27:38.709Z,23.99
2016-08-29T03:32:35.375Z,23.92
2016-08-29T03:37:31.988Z,23.98
2016-08-29T03:42:28.726Z,23.96
2016-08-29T03:47:25.475Z,23.88
2016-08-29T03:52:23.024Z,24.11
2016-08-29T03:57:19.230Z,23.93
2016-08-29T04:02:15.683Z,23.93
2016-08-29T04:07:14.714Z,24.05
2016-08-29T04:12:10.761Z,23.92
2016-08-29T04:17:08.099Z,23.96
2016-08-29T04:22:04.909Z,24.06
2016-08-29T04:27:01.482Z,23.98
2016-08-29T04:31:58.110Z,24.05
2016-08-29T04:36:54.874Z,23.99
2016-08-29T04:41:51.565Z,23.98
2016-08-29T04:46:48.193Z,24.05
2016-08-29T04:51:44.723Z,23.99
2016-08-29T04:56:41.392Z,24.01
2016-08-29T05:01:37.900Z,24.03
2016-08-29T05:06:34.410Z,23.96
2016-08-29T05:11:31.206Z,23.99
2016-08-29T05:16:27.713Z,24.01
2016-08-29T05:21:24.238Z,24.03
2016-08-29T05:26:21.052Z,23.96
2016-08-29T05:31:17.827Z,23.98
2016-08-29T05:36:14.439Z,23.86
2016-08-29T05:41:11.107Z,24.06
2016-08-29T05:46:07.753Z,23.92
2016-08-29T05:51:04.438Z,24.08
2016-08-29T05:56:00.856Z,24.03
2016-08-29T06:00:57.602Z,23.98
2016-08-29T06:05:54.001Z,23.99
2016-08-29T06:10:50.523Z,24.02
2016-08-29T06:15:47.108Z,24.13
2016-08-29T06:20:43.758Z,24.02
2016-08-29T06:25:41.800Z,23.95
2016-08-29T06:30:38.135Z,23.96
2016-08-29T06:35:35.416Z,23.80
2016-08-29T06:40:32.235Z,23.65
2016-08-29T06:45:29.483Z,23.65
2016-08-29T06:50:26.214Z,23.83
2016-08-29T06:55:25.372Z,23.84
2016-08-29T07:00:21.514Z,23.91
2016-08-29T07:05:18.215Z,23.83
2016-08-29T07:10:14.940Z,23.88
2016-08-29T07:15:11.642Z,24.20
2016-08-29T07:20:08.282Z,24.36
2016-08-29T07:25:04.974Z,24.65
2016-08-29T07:30:01.528Z,24.69
2016-08-29T07:34:58.663Z,24.63
2016-08-29T07:39:55.303Z,24.47
2016-08-29T07:44:52.069Z,24.88
2016-08-29T07:49:48.793Z,25.14
2016-08-29T07:54:45.892Z,25.11
2016-08-29T07:59:42.593Z,24.85
2016-08-29T08:04:39.143Z,24.73
2016-08-29T08:09:35.581Z,24.58
2016-08-29T08:14:32.353Z,24.63
2016-08-29T08:19:29.037Z,24.77
2016-08-29T08:24:25.725Z,24.85
2016-08-29T08:29:23.090Z,25.08
2016-08-29T08:34:19.626Z,25.04
2016-08-29T08:39:16.758Z,25.33
2016-08-29T08:44:13.808Z,25.18
2016-08-29T08:49:10.230Z,25.40
2016-08-29T08:54:07.798Z,25.58
2016-08-29T08:59:04.402Z,25.38
2016-08-29T09:04:00.362Z,25.11
2016-08-29T09:08:56.808Z,24.84
2016-08-29T09:13:53.257Z,24.85
2016-08-29T09:18:51.545Z,24.80
2016-08-29T09:23:47.802Z,24.86
2016-08-29T09:28:44.534Z,24.85
2016-08-29T09:33:41.210Z,24.88
2016-08-29T09:38:38.056Z,24.95
2016-08-29T09:43:34.716Z,24.88
2016-08-29T09:48:31.545Z,24.96
2016-08-29T09:53:28.581Z,25.04
2016-08-29T09:58:25.448Z,25.07
2016-08-29T10:03:22.104Z,25.06
2016-08-29T10:08:18.696Z,25.08
2016-08-29T10:13:15.470Z,25.10
2016-08-29T10:18:12.548Z,25.21
2016-08-29T10:23:09.334Z,25.14
2016-08-29T10:28:05.777Z,25.13
2016-08-29T10:33:02.551Z,25.18
2016-08-29T10:37:59.309Z,25.41
2016-08-29T10:42:55.925Z,25.53
2016-08-29T10:47:53.466Z,25.46
2016-08-29T10:52:49.834Z,25.53
2016-08-29T10:57:46.525Z,25.69
2016-08-29T11:02:43.190Z,25.68
2016-08-29T11:07:40.972Z,25.59
2016-08-29T11:12:37.564Z,25.41
2016-08-29T11:17:35.172Z,25.36
2016-08-29T11:22:31.560Z,25.41
2016-08-29T11:27:28.243Z,25.60
2016-08-29T11:32:25.010Z,25.65
2016-08-29T11:37:22.109Z,25.65
2016-08-29T11:42:18.896Z,25.83
2016-08-29T11:47:17.003Z,25.87
2016-08-29T11:52:13.438Z,25.81
2016-08-29T11:57:10.118Z,25.87
2016-08-29T12:02:07.006Z,25.83
2016-08-29T12:07:04.125Z,25.83
2016-08-29T12:12:00.743Z,25.66
2016-08-29T12:16:57.851Z,25.75
2016-08-29T12:21:54.626Z,25.78
2016-08-29T12:26:51.370Z,25.90
2016-08-29T12:31:47.985Z,25.77
2016-08-29T12:36:44.656Z,25.78
2016-08-29T12:41:41.018Z,25.72
2016-08-29T12:46:37.709Z,25.68
2016-08-29T12:51:34.385Z,25.69
2016-08-29T12:56:31.071Z,25.88
2016-08-29T13:01:27.766Z,25.85
2016-08-29T13:06:24.417Z,25.85
2016-08-29T13:11:21.008Z,25.81
2016-08-29T13:16:17.720Z,25.84
2016-08-29T13:21:14.474Z,25.65
2016-08-29T13:26:11.553Z,25.50
2016-08-29T13:31:08.233Z,25.51
2016-08-29T13:36:04.925Z,25.59
2016-08-29T13:41:02.030Z,25.46
2016-08-29T13:45:59.190Z,25.40
2016-08-29T13:50:55.587Z,25.35
2016-08-29T13:55:52.196Z,25.44
2016-08-29T14:00:48.793Z,25.41
2016-08-29T14:05:45.701Z,25.41
2016-08-29T14:10:42.702Z,25.38
2016-08-29T14:15:39.651Z,25.28
2016-08-29T14:20:36.426Z,25.22
2016-08-29T14:25:33.022Z,25.17
2016-08-29T14:30:30.152Z,25.18
2016-08-29T14:35:26.876Z,25.13
2016-08-29T14:40:24.742Z,25.17
2016-08-29T14:45:20.888Z,25.06
2016-08-29T14:50:18.790Z,25.17
2016-08-29T14:55:15.369Z,25.33
2016-08-29T15:00:12.142Z,25.29
2016-08-29T15:05:08.668Z,25.28
2016-08-29T15:10:05.353Z,25.10
2016-08-29T15:15:04.309Z,25.16
2016-08-29T15:20:00.601Z,25.03
2016-08-29T15:25:02.381Z,25.11
2016-08-29T15:29:58.186Z,25.01
2016-08-29T15:34:54.801Z,25.08
2016-08-29T15:39:51.460Z,25.13
2016-08-29T15:44:48.347Z,25.14
2016-08-29T15:49:47.625Z,25.06
2016-08-29T15:54:43.560Z,25.08
2016-08-29T15:59:41.655Z,25.06
2016-08-29T16:04:37.890Z,25.14
2016-08-29T16:09:34.458Z,25.08
2016-08-29T16:14:31.149Z,25.18
2016-08-29T16:19:28.082Z,25.07
2016-08-29T16:24:24.730Z,25.06
2016-08-29T16:29:21.659Z,24.89
2016-08-29T16:34:18.339Z,24.86
2016-08-29T16:39:14.904Z,24.81
2016-08-29T16:44:11.502Z,24.65
2016-08-29T16:49:08.128Z,24.68
2016-08-29T16:54:04.904Z,24.78
2016-08-29T16:59:01.655Z,24.69
2016-08-29T17:03:58.386Z,24.69
2016-08-29T17:08:55.536Z,24.61
2016-08-29T17:13:52.083Z,24.51
2016-08-29T17:18:48.650Z,24.51
2016-08-29T17:23:45.423Z,24.36
2016-08-29T17:28:42.089Z,24.54
2016-08-29T17:33:38.664Z,24.51
2016-08-29T17:38:34.961Z,24.45
2016-08-29T17:43:32.079Z,24.36
2016-08-29T17:48:28.514Z,24.30
2016-08-29T17:53:25.191Z,24.26
2016-08-29T17:58:21.799Z,24.21
2016-08-29T18:03:18.627Z,24.06
2016-08-29T18:08:15.234Z,24.02
2016-08-29T18:13:12.060Z,23.96
2016-08-29T18:18:08.677Z,23.80
2016-08-29T18:23:05.251Z,23.96
2016-08-29T18:28:02.158Z,23.87
2016-08-29T18:32:58.597Z,23.69
2016-08-29T18:37:55.172Z,23.63
2016-08-29T18:42:51.731Z,23.41
2016-08-29T18:47:48.325Z,23.09
2016-08-29T18:52:45.106Z,22.80
2016-08-29T18:57:41.755Z,22.63
2016-08-29T19:02:41.116Z,22.53
2016-08-29T19:07:42.579Z,22.43
2016-08-29T19:12:38.316Z,22.41
2016-08-29T19:17:37.214Z,22.45
2016-08-29T19:22:33.290Z,22.32
2016-08-29T19:27:29.980Z,22.39
2016-08-29T19:32:26.539Z,22.30
2016-08-29T19:37:23.120Z,22.47
2016-08-29T19:42:19.702Z,22.38
2016-08-29T19:47:16.245Z,22.25
2016-08-29T19:52:12.905Z,22.22
2016-08-29T19:57:09.556Z,22.23
2016-08-29T20:02:07.909Z,22.13
2016-08-29T20:07:04.304Z,21.99
2016-08-29T20:12:00.936Z,21.95
2016-08-29T20:16:57.667Z,21.82
2016-08-29T20:21:54.643Z,21.80
2016-08-29T20:26:51.622Z,21.77
2016-08-29T20:31:48.362Z,22.18
2016-08-29T20:36:45.370Z,22.43
2016-08-29T20:41:42.015Z,22.47
2016-08-29T20:46:38.565Z,22.54
2016-08-29T20:51:35.286Z,22.54
2016-08-29T20:56:32.623Z,22.59
2016-08-29T21:01:29.062Z,22.59
2016-08-29T21:06:26.719Z,22.55
2016-08-29T21:11:23.450Z,22.60
2016-08-29T21:16:20.164Z,22.91
2016-08-29T21:21:16.823Z,22.72
2016-08-29T21:26:13.252Z,22.81
2016-08-29T21:31:10.279Z,22.75
2016-08-29T21:36:06.969Z,22.75
2016-08-29T21:41:03.536Z,22.65
2016-08-29T21:46:00.191Z,22.57
2016-08-29T21:50:56.908Z,22.65
2016-08-29T21:55:53.346Z,22.70
2016-08-29T22:00:50.067Z,22.59
2016-08-29T22:05:47.031Z,22.54
2016-08-29T22:10:43.572Z,22.45
2016-08-29T22:15:40.474Z,22.47
2016-08-29T22:20:38.286Z,22.43
2016-08-29T22:25:34.705Z,22.39
2016-08-29T22:30:31.364Z,22.45
2016-08-29T22:35:28.017Z,22.41
2016-08-29T22:40:24.426Z,22.38
2016-08-29T22:45:22.073Z,22.41
2016-08-29T22:50:18.516Z,22.36
2016-08-29T22:55:14.957Z,22.20
2016-08-29T23:00:11.473Z,22.18
2016-08-29T23:05:08.704Z,22.04
2016-08-29T23:10:05.127Z,21.93
2016-08-29T23:15:03.278Z,21.95
2016-08-29T23:19:59.775Z,21.96
2016-08-29T23:24:56.863Z,21.91
2016-08-29T23:29:53.551Z,21.93
2016-08-29T23:34:50.006Z,21.99
2016-08-29T23:39:46.588Z,21.93
2016-08-29T23:44:43.549Z,21.83
2016-08-29T23:49:40.695Z,21.77
2016-08-29T23:54:37.170Z,21.80
2016-08-29T23:59:34.207Z,21.79
